sensor_id;sensor_type;location;lat;lon;timestamp;P1;durP1;ratioP1;P2;durP2;ratioP2
29712;SDS011;16623;53.632;10.016;2023-01-20T00:01:11;9.15;;;3.47;;
29712;SDS011;16623;53.632;10.016;2023-01-20T00:03:40;12.40;;;3.15;;
29712;SDS011;16623;53.632;10.016;2023-01-20T00:06:07;11.50;;;3.13;;
29712;SDS011;16623;53.632;10.016;2023-01-20T00:08:33;12.70;;;3.70;;
29712;SDS011;16623;53.632;10.016;2023-01-20T00:11:02;9.10;;;2.67;;
29712;SDS011;16623;53.632;10.016;2023-01-20T00:13:36;18.33;;;3.72;;
29712;SDS011;16623;53.632;10.016;2023-01-20T00:16:03;11.32;;;5.10;;
29712;SDS011;16623;53.632;10.016;2023-01-20T00:18:33;12.15;;;3.97;;
29712;SDS011;16623;53.632;10.016;2023-01-20T00:21:05;12.57;;;3.30;;
29712;SDS011;16623;53.632;10.016;2023-01-20T00:23:32;23.05;;;3.97;;
29712;SDS011;16623;53.632;10.016;2023-01-20T00:25:57;7.97;;;2.80;;
29712;SDS011;16623;53.632;10.016;2023-01-20T00:28:27;10.88;;;4.13;;
29712;SDS011;16623;53.632;10.016;2023-01-20T00:30:52;9.85;;;3.45;;
29712;SDS011;16623;53.632;10.016;2023-01-20T00:33:18;9.88;;;3.47;;
29712;SDS011;16623;53.632;10.016;2023-01-20T00:35:43;9.43;;;3.65;;
29712;SDS011;16623;53.632;10.016;2023-01-20T00:38:09;12.68;;;3.40;;
29712;SDS011;16623;53.632;10.016;2023-01-20T00:40:34;11.55;;;3.28;;
29712;SDS011;16623;53.632;10.016;2023-01-20T00:43:00;8.98;;;3.58;;
29712;SDS011;16623;53.632;10.016;2023-01-20T00:45:25;10.68;;;3.58;;
29712;SDS011;16623;53.632;10.016;2023-01-20T00:47:51;17.15;;;4.30;;
29712;SDS011;16623;53.632;10.016;2023-01-20T00:50:16;18.48;;;4.57;;
29712;SDS011;16623;53.632;10.016;2023-01-20T00:52:42;12.20;;;3.92;;
29712;SDS011;16623;53.632;10.016;2023-01-20T00:55:07;18.15;;;4.80;;
29712;SDS011;16623;53.632;10.016;2023-01-20T00:57:33;12.25;;;4.43;;
29712;SDS011;16623;53.632;10.016;2023-01-20T00:59:59;13.10;;;4.75;;
29712;SDS011;16623;53.632;10.016;2023-01-20T01:02:24;14.35;;;3.60;;
29712;SDS011;16623;53.632;10.016;2023-01-20T01:04:51;8.02;;;4.70;;
29712;SDS011;16623;53.632;10.016;2023-01-20T01:07:17;9.13;;;4.13;;
29712;SDS011;16623;53.632;10.016;2023-01-20T01:09:42;11.38;;;4.18;;
29712;SDS011;16623;53.632;10.016;2023-01-20T01:12:08;12.07;;;4.22;;
29712;SDS011;16623;53.632;10.016;2023-01-20T01:14:34;11.30;;;4.40;;
29712;SDS011;16623;53.632;10.016;2023-01-20T01:16:59;13.10;;;4.80;;
29712;SDS011;16623;53.632;10.016;2023-01-20T01:19:25;12.23;;;4.75;;
29712;SDS011;16623;53.632;10.016;2023-01-20T01:21:50;13.10;;;4.95;;
29712;SDS011;16623;53.632;10.016;2023-01-20T01:24:16;18.88;;;4.85;;
29712;SDS011;16623;53.632;10.016;2023-01-20T01:26:41;11.93;;;5.55;;
29712;SDS011;16623;53.632;10.016;2023-01-20T01:29:10;11.65;;;4.50;;
29712;SDS011;16623;53.632;10.016;2023-01-20T01:31:37;18.92;;;6.05;;
29712;SDS011;16623;53.632;10.016;2023-01-20T01:34:02;13.38;;;5.68;;
29712;SDS011;16623;53.632;10.016;2023-01-20T01:36:28;20.55;;;6.38;;
29712;SDS011;16623;53.632;10.016;2023-01-20T01:38:53;20.83;;;7.65;;
29712;SDS011;16623;53.632;10.016;2023-01-20T01:41:19;21.80;;;7.50;;
29712;SDS011;16623;53.632;10.016;2023-01-20T01:44:02;16.77;;;7.13;;
29712;SDS011;16623;53.632;10.016;2023-01-20T01:46:32;19.05;;;8.10;;
29712;SDS011;16623;53.632;10.016;2023-01-20T01:49:03;17.52;;;6.55;;
29712;SDS011;16623;53.632;10.016;2023-01-20T01:51:34;19.30;;;8.63;;
29712;SDS011;16623;53.632;10.016;2023-01-20T01:54:05;17.65;;;9.32;;
29712;SDS011;16623;53.632;10.016;2023-01-20T01:56:34;18.92;;;9.68;;
29712;SDS011;16623;53.632;10.016;2023-01-20T01:59:01;30.08;;;9.70;;
29712;SDS011;16623;53.632;10.016;2023-01-20T02:01:28;21.98;;;10.85;;
29712;SDS011;16623;53.632;10.016;2023-01-20T02:03:57;27.23;;;11.07;;
29712;SDS011;16623;53.632;10.016;2023-01-20T02:06:28;26.45;;;11.10;;
29712;SDS011;16623;53.632;10.016;2023-01-20T02:08:57;30.52;;;11.95;;
29712;SDS011;16623;53.632;10.016;2023-01-20T02:11:26;26.50;;;12.38;;
29712;SDS011;16623;53.632;10.016;2023-01-20T02:13:53;31.33;;;13.30;;
29712;SDS011;16623;53.632;10.016;2023-01-20T02:16:25;28.00;;;12.43;;
29712;SDS011;16623;53.632;10.016;2023-01-20T02:19:32;29.13;;;12.77;;
29712;SDS011;16623;53.632;10.016;2023-01-20T02:33:44;31.58;;;16.00;;
29712;SDS011;16623;53.632;10.016;2023-01-20T02:36:13;35.17;;;16.35;;
29712;SDS011;16623;53.632;10.016;2023-01-20T02:38:45;36.25;;;15.80;;
29712;SDS011;16623;53.632;10.016;2023-01-20T02:41:37;32.80;;;16.55;;
29712;SDS011;16623;53.632;10.016;2023-01-20T02:44:22;36.58;;;17.17;;
29712;SDS011;16623;53.632;10.016;2023-01-20T02:47:01;33.45;;;18.35;;
29712;SDS011;16623;53.632;10.016;2023-01-20T02:49:39;39.70;;;18.90;;
29712;SDS011;16623;53.632;10.016;2023-01-20T02:52:16;37.58;;;18.13;;
29712;SDS011;16623;53.632;10.016;2023-01-20T02:54:47;40.22;;;16.50;;
29712;SDS011;16623;53.632;10.016;2023-01-20T02:57:17;43.55;;;19.85;;
29712;SDS011;16623;53.632;10.016;2023-01-20T02:59:56;35.30;;;19.67;;
29712;SDS011;16623;53.632;10.016;2023-01-20T03:02:28;38.05;;;20.63;;
29712;SDS011;16623;53.632;10.016;2023-01-20T03:04:59;39.80;;;22.58;;
29712;SDS011;16623;53.632;10.016;2023-01-20T03:07:28;43.90;;;21.67;;
29712;SDS011;16623;53.632;10.016;2023-01-20T03:09:58;40.92;;;23.25;;
29712;SDS011;16623;53.632;10.016;2023-01-20T03:12:29;47.97;;;22.75;;
29712;SDS011;16623;53.632;10.016;2023-01-20T03:15:02;46.15;;;23.02;;
29712;SDS011;16623;53.632;10.016;2023-01-20T03:17:28;43.70;;;23.70;;
29712;SDS011;16623;53.632;10.016;2023-01-20T03:19:53;31.05;;;18.00;;
29712;SDS011;16623;53.632;10.016;2023-01-20T03:22:19;45.88;;;25.23;;
29712;SDS011;16623;53.632;10.016;2023-01-20T03:24:45;60.35;;;25.77;;
29712;SDS011;16623;53.632;10.016;2023-01-20T03:27:12;46.35;;;24.42;;
29712;SDS011;16623;53.632;10.016;2023-01-20T03:29:38;48.30;;;23.67;;
29712;SDS011;16623;53.632;10.016;2023-01-20T03:32:03;46.78;;;26.70;;
29712;SDS011;16623;53.632;10.016;2023-01-20T03:34:32;50.25;;;26.15;;
29712;SDS011;16623;53.632;10.016;2023-01-20T03:37:00;56.63;;;27.95;;
29712;SDS011;16623;53.632;10.016;2023-01-20T03:39:27;42.65;;;23.63;;
29712;SDS011;16623;53.632;10.016;2023-01-20T03:42:02;58.28;;;28.73;;
29712;SDS011;16623;53.632;10.016;2023-01-20T03:44:40;49.53;;;29.35;;
29712;SDS011;16623;53.632;10.016;2023-01-20T03:49:55;49.88;;;27.42;;
29712;SDS011;16623;53.632;10.016;2023-01-20T03:52:32;54.05;;;28.70;;
29712;SDS011;16623;53.632;10.016;2023-01-20T03:55:09;56.58;;;27.25;;
29712;SDS011;16623;53.632;10.016;2023-01-20T03:57:43;61.88;;;30.63;;
29712;SDS011;16623;53.632;10.016;2023-01-20T04:00:15;51.08;;;28.35;;
29712;SDS011;16623;53.632;10.016;2023-01-20T04:02:43;60.95;;;31.80;;
29712;SDS011;16623;53.632;10.016;2023-01-20T04:05:09;65.40;;;31.17;;
29712;SDS011;16623;53.632;10.016;2023-01-20T04:07:35;59.63;;;32.88;;
29712;SDS011;16623;53.632;10.016;2023-01-20T04:10:05;63.03;;;30.40;;
29712;SDS011;16623;53.632;10.016;2023-01-20T04:12:36;61.88;;;29.35;;
29712;SDS011;16623;53.632;10.016;2023-01-20T04:15:02;58.10;;;30.90;;
29712;SDS011;16623;53.632;10.016;2023-01-20T04:17:30;60.38;;;31.08;;
29712;SDS011;16623;53.632;10.016;2023-01-20T04:19:57;60.08;;;30.50;;
29712;SDS011;16623;53.632;10.016;2023-01-20T04:22:29;57.60;;;29.20;;
29712;SDS011;16623;53.632;10.016;2023-01-20T04:27:27;64.50;;;29.13;;
29712;SDS011;16623;53.632;10.016;2023-01-20T04:29:53;64.65;;;30.20;;
29712;SDS011;16623;53.632;10.016;2023-01-20T04:32:18;59.03;;;28.45;;
29712;SDS011;16623;53.632;10.016;2023-01-20T04:34:44;54.25;;;30.35;;
29712;SDS011;16623;53.632;10.016;2023-01-20T04:37:09;59.40;;;28.80;;
29712;SDS011;16623;53.632;10.016;2023-01-20T04:39:35;58.72;;;29.80;;
29712;SDS011;16623;53.632;10.016;2023-01-20T04:42:00;56.28;;;30.63;;
29712;SDS011;16623;53.632;10.016;2023-01-20T04:44:26;60.53;;;28.92;;
29712;SDS011;16623;53.632;10.016;2023-01-20T04:46:55;60.83;;;29.25;;
29712;SDS011;16623;53.632;10.016;2023-01-20T04:49:21;61.55;;;29.30;;
29712;SDS011;16623;53.632;10.016;2023-01-20T04:51:47;57.45;;;26.75;;
29712;SDS011;16623;53.632;10.016;2023-01-20T04:54:12;57.33;;;28.35;;
29712;SDS011;16623;53.632;10.016;2023-01-20T04:56:38;50.50;;;27.58;;
29712;SDS011;16623;53.632;10.016;2023-01-20T04:59:03;55.25;;;27.73;;
29712;SDS011;16623;53.632;10.016;2023-01-20T05:01:29;56.75;;;29.65;;
29712;SDS011;16623;53.632;10.016;2023-01-20T05:03:54;52.70;;;28.23;;
29712;SDS011;16623;53.632;10.016;2023-01-20T05:06:20;50.42;;;25.58;;
29712;SDS011;16623;53.632;10.016;2023-01-20T05:08:45;60.33;;;28.20;;
29712;SDS011;16623;53.632;10.016;2023-01-20T05:11:11;56.28;;;27.02;;
29712;SDS011;16623;53.632;10.016;2023-01-20T05:13:36;63.30;;;29.33;;
29712;SDS011;16623;53.632;10.016;2023-01-20T05:16:07;49.70;;;25.52;;
29712;SDS011;16623;53.632;10.016;2023-01-20T05:18:33;64.28;;;29.00;;
29712;SDS011;16623;53.632;10.016;2023-01-20T05:20:59;61.28;;;28.10;;
29712;SDS011;16623;53.632;10.016;2023-01-20T05:23:25;60.40;;;29.13;;
29712;SDS011;16623;53.632;10.016;2023-01-20T05:25:51;52.92;;;26.63;;
29712;SDS011;16623;53.632;10.016;2023-01-20T05:28:18;61.10;;;27.73;;
29712;SDS011;16623;53.632;10.016;2023-01-20T05:30:43;51.85;;;27.63;;
29712;SDS011;16623;53.632;10.016;2023-01-20T05:33:10;59.00;;;26.52;;
29712;SDS011;16623;53.632;10.016;2023-01-20T05:35:38;47.97;;;24.90;;
29712;SDS011;16623;53.632;10.016;2023-01-20T05:38:04;53.90;;;25.40;;
29712;SDS011;16623;53.632;10.016;2023-01-20T05:40:29;55.75;;;28.20;;
29712;SDS011;16623;53.632;10.016;2023-01-20T05:42:58;52.22;;;25.05;;
29712;SDS011;16623;53.632;10.016;2023-01-20T05:45:26;57.55;;;26.70;;
29712;SDS011;16623;53.632;10.016;2023-01-20T05:47:53;58.33;;;27.02;;
29712;SDS011;16623;53.632;10.016;2023-01-20T05:50:20;61.95;;;26.75;;
29712;SDS011;16623;53.632;10.016;2023-01-20T05:52:47;58.58;;;27.75;;
29712;SDS011;16623;53.632;10.016;2023-01-20T05:55:12;53.03;;;25.60;;
29712;SDS011;16623;53.632;10.016;2023-01-20T05:57:38;55.28;;;26.88;;
29712;SDS011;16623;53.632;10.016;2023-01-20T06:00:03;56.05;;;25.98;;
29712;SDS011;16623;53.632;10.016;2023-01-20T06:02:30;51.20;;;24.77;;
29712;SDS011;16623;53.632;10.016;2023-01-20T06:04:56;53.22;;;26.38;;
29712;SDS011;16623;53.632;10.016;2023-01-20T06:07:26;53.30;;;25.80;;
29712;SDS011;16623;53.632;10.016;2023-01-20T06:09:53;52.15;;;25.25;;
29712;SDS011;16623;53.632;10.016;2023-01-20T06:12:18;49.40;;;23.60;;
29712;SDS011;16623;53.632;10.016;2023-01-20T06:14:44;53.47;;;25.10;;
29712;SDS011;16623;53.632;10.016;2023-01-20T06:17:09;49.08;;;23.58;;
29712;SDS011;16623;53.632;10.016;2023-01-20T06:19:35;53.38;;;26.52;;
29712;SDS011;16623;53.632;10.016;2023-01-20T06:22:00;44.53;;;23.80;;
29712;SDS011;16623;53.632;10.016;2023-01-20T06:24:26;50.78;;;24.33;;
29712;SDS011;16623;53.632;10.016;2023-01-20T06:26:51;52.20;;;24.15;;
29712;SDS011;16623;53.632;10.016;2023-01-20T06:29:18;52.40;;;24.75;;
29712;SDS011;16623;53.632;10.016;2023-01-20T06:31:44;53.40;;;25.23;;
29712;SDS011;16623;53.632;10.016;2023-01-20T06:34:10;54.08;;;24.80;;
29712;SDS011;16623;53.632;10.016;2023-01-20T06:36:36;56.58;;;23.58;;
29712;SDS011;16623;53.632;10.016;2023-01-20T06:39:02;58.95;;;25.20;;
29712;SDS011;16623;53.632;10.016;2023-01-20T06:41:27;51.30;;;26.42;;
29712;SDS011;16623;53.632;10.016;2023-01-20T06:43:53;49.78;;;24.85;;
29712;SDS011;16623;53.632;10.016;2023-01-20T06:46:18;54.80;;;24.00;;
29712;SDS011;16623;53.632;10.016;2023-01-20T06:48:44;51.45;;;24.45;;
29712;SDS011;16623;53.632;10.016;2023-01-20T06:51:11;50.15;;;24.02;;
29712;SDS011;16623;53.632;10.016;2023-01-20T06:53:43;49.90;;;23.95;;
29712;SDS011;16623;53.632;10.016;2023-01-20T06:56:09;51.42;;;21.88;;
29712;SDS011;16623;53.632;10.016;2023-01-20T06:58:36;52.97;;;24.95;;
29712;SDS011;16623;53.632;10.016;2023-01-20T07:03:43;48.88;;;25.52;;
29712;SDS011;16623;53.632;10.016;2023-01-20T07:06:16;52.45;;;24.55;;
29712;SDS011;16623;53.632;10.016;2023-01-20T07:08:42;49.35;;;20.88;;
29712;SDS011;16623;53.632;10.016;2023-01-20T07:11:08;51.17;;;24.42;;
29712;SDS011;16623;53.632;10.016;2023-01-20T07:13:34;53.83;;;21.92;;
29712;SDS011;16623;53.632;10.016;2023-01-20T07:15:59;53.78;;;22.77;;
29712;SDS011;16623;53.632;10.016;2023-01-20T07:18:25;47.38;;;22.17;;
29712;SDS011;16623;53.632;10.016;2023-01-20T07:20:54;48.08;;;21.40;;
29712;SDS011;16623;53.632;10.016;2023-01-20T07:23:20;42.90;;;20.55;;
29712;SDS011;16623;53.632;10.016;2023-01-20T07:25:47;45.60;;;19.75;;
29712;SDS011;16623;53.632;10.016;2023-01-20T07:28:20;41.67;;;18.93;;
29712;SDS011;16623;53.632;10.016;2023-01-20T07:30:45;55.10;;;23.55;;
29712;SDS011;16623;53.632;10.016;2023-01-20T07:33:11;47.78;;;21.88;;
29712;SDS011;16623;53.632;10.016;2023-01-20T07:35:36;51.03;;;21.48;;
29712;SDS011;16623;53.632;10.016;2023-01-20T07:38:02;47.45;;;21.88;;
29712;SDS011;16623;53.632;10.016;2023-01-20T07:40:28;47.60;;;22.33;;
29712;SDS011;16623;53.632;10.016;2023-01-20T07:42:54;49.03;;;22.58;;
29712;SDS011;16623;53.632;10.016;2023-01-20T07:45:19;57.10;;;23.98;;
29712;SDS011;16623;53.632;10.016;2023-01-20T07:47:45;54.10;;;23.20;;
29712;SDS011;16623;53.632;10.016;2023-01-20T07:50:10;44.72;;;22.35;;
29712;SDS011;16623;53.632;10.016;2023-01-20T07:52:36;49.58;;;23.55;;
29712;SDS011;16623;53.632;10.016;2023-01-20T07:55:01;49.40;;;24.15;;
29712;SDS011;16623;53.632;10.016;2023-01-20T07:57:28;50.58;;;21.55;;
29712;SDS011;16623;53.632;10.016;2023-01-20T07:59:57;42.40;;;21.23;;
29712;SDS011;16623;53.632;10.016;2023-01-20T08:02:22;46.92;;;22.60;;
29712;SDS011;16623;53.632;10.016;2023-01-20T08:04:48;43.85;;;21.08;;
29712;SDS011;16623;53.632;10.016;2023-01-20T08:07:14;44.20;;;22.02;;
29712;SDS011;16623;53.632;10.016;2023-01-20T08:09:41;47.15;;;19.83;;
29712;SDS011;16623;53.632;10.016;2023-01-20T08:12:07;43.92;;;20.15;;
29712;SDS011;16623;53.632;10.016;2023-01-20T08:14:33;53.25;;;22.70;;
29712;SDS011;16623;53.632;10.016;2023-01-20T08:16:59;47.75;;;20.40;;
29712;SDS011;16623;53.632;10.016;2023-01-20T08:19:27;38.58;;;16.27;;
29712;SDS011;16623;53.632;10.016;2023-01-20T08:21:53;43.65;;;18.48;;
29712;SDS011;16623;53.632;10.016;2023-01-20T08:24:19;41.83;;;19.50;;
29712;SDS011;16623;53.632;10.016;2023-01-20T08:26:45;40.63;;;19.65;;
29712;SDS011;16623;53.632;10.016;2023-01-20T08:29:10;38.22;;;17.25;;
29712;SDS011;16623;53.632;10.016;2023-01-20T08:31:36;60.88;;;27.88;;
29712;SDS011;16623;53.632;10.016;2023-01-20T08:34:02;36.42;;;17.52;;
29712;SDS011;16623;53.632;10.016;2023-01-20T08:36:33;39.40;;;18.00;;
29712;SDS011;16623;53.632;10.016;2023-01-20T08:39:01;40.05;;;17.17;;
29712;SDS011;16623;53.632;10.016;2023-01-20T08:41:29;41.20;;;21.02;;
29712;SDS011;16623;53.632;10.016;2023-01-20T08:44:00;40.53;;;18.35;;
29712;SDS011;16623;53.632;10.016;2023-01-20T08:46:27;38.95;;;17.98;;
29712;SDS011;16623;53.632;10.016;2023-01-20T08:48:53;36.75;;;15.05;;
29712;SDS011;16623;53.632;10.016;2023-01-20T08:51:30;34.00;;;16.50;;
29712;SDS011;16623;53.632;10.016;2023-01-20T08:53:57;36.13;;;17.42;;
29712;SDS011;16623;53.632;10.016;2023-01-20T08:56:24;43.20;;;18.55;;
29712;SDS011;16623;53.632;10.016;2023-01-20T08:58:50;41.90;;;18.15;;
29712;SDS011;16623;53.632;10.016;2023-01-20T09:01:19;35.38;;;17.08;;
29712;SDS011;16623;53.632;10.016;2023-01-20T09:03:46;35.78;;;18.48;;
29712;SDS011;16623;53.632;10.016;2023-01-20T09:06:14;31.73;;;16.48;;
29712;SDS011;16623;53.632;10.016;2023-01-20T09:08:40;37.08;;;17.13;;
29712;SDS011;16623;53.632;10.016;2023-01-20T09:11:10;42.67;;;18.08;;
29712;SDS011;16623;53.632;10.016;2023-01-20T09:13:37;31.98;;;17.27;;
29712;SDS011;16623;53.632;10.016;2023-01-20T09:16:04;41.33;;;17.75;;
29712;SDS011;16623;53.632;10.016;2023-01-20T09:18:30;37.28;;;17.80;;
29712;SDS011;16623;53.632;10.016;2023-01-20T09:20:57;37.75;;;17.98;;
29712;SDS011;16623;53.632;10.016;2023-01-20T09:23:23;49.45;;;17.88;;
29712;SDS011;16623;53.632;10.016;2023-01-20T09:25:49;26.90;;;10.40;;
29712;SDS011;16623;53.632;10.016;2023-01-20T09:28:15;35.53;;;16.30;;
29712;SDS011;16623;53.632;10.016;2023-01-20T09:30:43;35.92;;;16.75;;
29712;SDS011;16623;53.632;10.016;2023-01-20T09:33:09;36.60;;;17.73;;
29712;SDS011;16623;53.632;10.016;2023-01-20T09:35:35;33.97;;;16.00;;
29712;SDS011;16623;53.632;10.016;2023-01-20T09:38:01;32.70;;;15.95;;
29712;SDS011;16623;53.632;10.016;2023-01-20T09:40:57;35.78;;;17.85;;
29712;SDS011;16623;53.632;10.016;2023-01-20T09:46:29;35.90;;;16.23;;
29712;SDS011;16623;53.632;10.016;2023-01-20T09:49:56;35.03;;;16.15;;
29712;SDS011;16623;53.632;10.016;2023-01-20T09:53:08;42.28;;;17.13;;
29712;SDS011;16623;53.632;10.016;2023-01-20T09:56:14;31.58;;;15.80;;
29712;SDS011;16623;53.632;10.016;2023-01-20T10:01:30;42.72;;;18.95;;
29712;SDS011;16623;53.632;10.016;2023-01-20T10:04:18;32.78;;;18.13;;
29712;SDS011;16623;53.632;10.016;2023-01-20T10:06:50;33.78;;;16.65;;
29712;SDS011;16623;53.632;10.016;2023-01-20T10:09:53;39.50;;;15.63;;
29712;SDS011;16623;53.632;10.016;2023-01-20T10:12:26;35.70;;;16.45;;
29712;SDS011;16623;53.632;10.016;2023-01-20T10:17:59;32.13;;;15.50;;
29712;SDS011;16623;53.632;10.016;2023-01-20T10:20:39;33.80;;;16.92;;
29712;SDS011;16623;53.632;10.016;2023-01-20T10:25:40;33.20;;;16.13;;
29712;SDS011;16623;53.632;10.016;2023-01-20T10:28:15;32.80;;;15.60;;
29712;SDS011;16623;53.632;10.016;2023-01-20T10:30:43;36.45;;;15.88;;
29712;SDS011;16623;53.632;10.016;2023-01-20T10:33:23;34.80;;;17.50;;
29712;SDS011;16623;53.632;10.016;2023-01-20T10:35:53;29.13;;;16.05;;
29712;SDS011;16623;53.632;10.016;2023-01-20T10:41:03;33.90;;;15.50;;
29712;SDS011;16623;53.632;10.016;2023-01-20T10:43:39;34.47;;;15.10;;
29712;SDS011;16623;53.632;10.016;2023-01-20T10:46:14;34.13;;;15.68;;
29712;SDS011;16623;53.632;10.016;2023-01-20T10:57:28;30.05;;;14.07;;
29712;SDS011;16623;53.632;10.016;2023-01-20T10:59:54;33.15;;;16.40;;
29712;SDS011;16623;53.632;10.016;2023-01-20T11:02:25;35.38;;;16.50;;
29712;SDS011;16623;53.632;10.016;2023-01-20T11:04:59;31.55;;;15.57;;
29712;SDS011;16623;53.632;10.016;2023-01-20T11:07:27;33.45;;;15.63;;
29712;SDS011;16623;53.632;10.016;2023-01-20T11:09:56;34.80;;;16.92;;
29712;SDS011;16623;53.632;10.016;2023-01-20T11:12:25;30.80;;;15.60;;
29712;SDS011;16623;53.632;10.016;2023-01-20T11:14:54;33.58;;;16.27;;
29712;SDS011;16623;53.632;10.016;2023-01-20T11:17:23;46.20;;;18.63;;
29712;SDS011;16623;53.632;10.016;2023-01-20T11:19:53;31.60;;;16.23;;
29712;SDS011;16623;53.632;10.016;2023-01-20T11:22:31;26.85;;;14.18;;
29712;SDS011;16623;53.632;10.016;2023-01-20T11:24:59;30.30;;;13.77;;
29712;SDS011;16623;53.632;10.016;2023-01-20T11:27:30;35.38;;;14.73;;
29712;SDS011;16623;53.632;10.016;2023-01-20T11:30:05;30.02;;;14.93;;
29712;SDS011;16623;53.632;10.016;2023-01-20T11:38:47;33.03;;;15.88;;
29712;SDS011;16623;53.632;10.016;2023-01-20T11:41:18;27.15;;;15.25;;
29712;SDS011;16623;53.632;10.016;2023-01-20T11:43:49;32.05;;;15.75;;
29712;SDS011;16623;53.632;10.016;2023-01-20T11:46:37;31.38;;;15.27;;
29712;SDS011;16623;53.632;10.016;2023-01-20T11:49:13;25.30;;;14.10;;
29712;SDS011;16623;53.632;10.016;2023-01-20T11:51:53;26.25;;;13.77;;
29712;SDS011;16623;53.632;10.016;2023-01-20T11:54:21;28.67;;;14.48;;
29712;SDS011;16623;53.632;10.016;2023-01-20T11:56:51;26.35;;;14.32;;
29712;SDS011;16623;53.632;10.016;2023-01-20T12:02:17;33.20;;;16.80;;
29712;SDS011;16623;53.632;10.016;2023-01-20T12:07:22;29.85;;;14.73;;
29712;SDS011;16623;53.632;10.016;2023-01-20T12:09:56;26.73;;;13.23;;
29712;SDS011;16623;53.632;10.016;2023-01-20T12:15:04;32.38;;;14.82;;
29712;SDS011;16623;53.632;10.016;2023-01-20T12:20:22;25.65;;;12.80;;
29712;SDS011;16623;53.632;10.016;2023-01-20T12:26:09;28.30;;;15.55;;
29712;SDS011;16623;53.632;10.016;2023-01-20T12:28:40;33.25;;;15.38;;
29712;SDS011;16623;53.632;10.016;2023-01-20T12:31:25;28.58;;;14.93;;
29712;SDS011;16623;53.632;10.016;2023-01-20T12:36:49;32.83;;;13.82;;
29712;SDS011;16623;53.632;10.016;2023-01-20T12:39:30;28.60;;;16.17;;
29712;SDS011;16623;53.632;10.016;2023-01-20T12:47:11;27.52;;;14.77;;
29712;SDS011;16623;53.632;10.016;2023-01-20T12:52:24;28.70;;;15.45;;
29712;SDS011;16623;53.632;10.016;2023-01-20T13:09:54;30.25;;;14.75;;
29712;SDS011;16623;53.632;10.016;2023-01-20T13:15:13;32.05;;;14.75;;
29712;SDS011;16623;53.632;10.016;2023-01-20T13:17:50;26.42;;;14.60;;
29712;SDS011;16623;53.632;10.016;2023-01-20T13:20:31;33.00;;;14.70;;
29712;SDS011;16623;53.632;10.016;2023-01-20T13:23:03;25.85;;;14.30;;
29712;SDS011;16623;53.632;10.016;2023-01-20T13:25:29;31.00;;;14.55;;
29712;SDS011;16623;53.632;10.016;2023-01-20T13:28:09;26.08;;;14.18;;
29712;SDS011;16623;53.632;10.016;2023-01-20T13:30:44;27.65;;;13.98;;
29712;SDS011;16623;53.632;10.016;2023-01-20T13:33:36;26.45;;;13.55;;
29712;SDS011;16623;53.632;10.016;2023-01-20T13:39:34;29.83;;;13.70;;
29712;SDS011;16623;53.632;10.016;2023-01-20T13:47:56;32.65;;;13.43;;
29712;SDS011;16623;53.632;10.016;2023-01-20T13:50:26;22.63;;;12.77;;
29712;SDS011;16623;53.632;10.016;2023-01-20T13:55:28;27.45;;;13.77;;
29712;SDS011;16623;53.632;10.016;2023-01-20T14:00:56;29.15;;;14.25;;
29712;SDS011;16623;53.632;10.016;2023-01-20T14:03:28;28.52;;;13.45;;
29712;SDS011;16623;53.632;10.016;2023-01-20T14:05:55;26.92;;;13.65;;
29712;SDS011;16623;53.632;10.016;2023-01-20T14:08:38;35.13;;;15.15;;
29712;SDS011;16623;53.632;10.016;2023-01-20T14:11:08;28.58;;;12.52;;
29712;SDS011;16623;53.632;10.016;2023-01-20T14:13:33;25.52;;;13.00;;
29712;SDS011;16623;53.632;10.016;2023-01-20T14:15:59;26.60;;;15.60;;
29712;SDS011;16623;53.632;10.016;2023-01-20T14:18:25;28.33;;;14.35;;
29712;SDS011;16623;53.632;10.016;2023-01-20T14:20:55;25.38;;;14.05;;
29712;SDS011;16623;53.632;10.016;2023-01-20T14:23:39;28.60;;;15.10;;
29712;SDS011;16623;53.632;10.016;2023-01-20T14:26:09;27.50;;;13.27;;
29712;SDS011;16623;53.632;10.016;2023-01-20T14:28:42;33.53;;;13.40;;
29712;SDS011;16623;53.632;10.016;2023-01-20T14:31:10;24.63;;;13.63;;
29712;SDS011;16623;53.632;10.016;2023-01-20T14:33:48;24.67;;;12.80;;
29712;SDS011;16623;53.632;10.016;2023-01-20T14:36:41;26.05;;;13.20;;
29712;SDS011;16623;53.632;10.016;2023-01-20T14:39:11;32.83;;;14.15;;
29712;SDS011;16623;53.632;10.016;2023-01-20T14:41:46;28.98;;;13.90;;
29712;SDS011;16623;53.632;10.016;2023-01-20T14:44:20;21.98;;;11.95;;
29712;SDS011;16623;53.632;10.016;2023-01-20T14:46:51;23.60;;;12.43;;
29712;SDS011;16623;53.632;10.016;2023-01-20T14:49:20;21.60;;;12.13;;
29712;SDS011;16623;53.632;10.016;2023-01-20T14:51:48;24.77;;;13.10;;
29712;SDS011;16623;53.632;10.016;2023-01-20T14:54:34;28.13;;;12.73;;
29712;SDS011;16623;53.632;10.016;2023-01-20T14:57:14;26.05;;;13.48;;
29712;SDS011;16623;53.632;10.016;2023-01-20T15:02:43;27.02;;;14.65;;
29712;SDS011;16623;53.632;10.016;2023-01-20T15:05:27;28.02;;;14.70;;
29712;SDS011;16623;53.632;10.016;2023-01-20T15:12:54;31.33;;;14.63;;
29712;SDS011;16623;53.632;10.016;2023-01-20T15:15:26;31.80;;;15.88;;
29712;SDS011;16623;53.632;10.016;2023-01-20T15:18:11;30.02;;;15.52;;
29712;SDS011;16623;53.632;10.016;2023-01-20T15:20:53;28.85;;;13.85;;
29712;SDS011;16623;53.632;10.016;2023-01-20T15:28:51;30.77;;;15.80;;
29712;SDS011;16623;53.632;10.016;2023-01-20T15:31:18;29.98;;;15.35;;
29712;SDS011;16623;53.632;10.016;2023-01-20T15:33:43;32.50;;;14.98;;
29712;SDS011;16623;53.632;10.016;2023-01-20T15:38:40;30.95;;;15.82;;
29712;SDS011;16623;53.632;10.016;2023-01-20T15:41:07;28.63;;;14.55;;
29712;SDS011;16623;53.632;10.016;2023-01-20T15:43:35;31.60;;;16.13;;
29712;SDS011;16623;53.632;10.016;2023-01-20T15:46:01;35.13;;;16.50;;
29712;SDS011;16623;53.632;10.016;2023-01-20T15:48:26;38.50;;;17.20;;
29712;SDS011;16623;53.632;10.016;2023-01-20T15:50:52;36.58;;;16.00;;
29712;SDS011;16623;53.632;10.016;2023-01-20T15:53:18;40.63;;;18.05;;
29712;SDS011;16623;53.632;10.016;2023-01-20T15:55:44;40.20;;;17.60;;
29712;SDS011;16623;53.632;10.016;2023-01-20T15:58:21;39.05;;;18.38;;
29712;SDS011;16623;53.632;10.016;2023-01-20T16:00:49;34.95;;;17.92;;
29712;SDS011;16623;53.632;10.016;2023-01-20T16:03:17;31.05;;;15.98;;
29712;SDS011;16623;53.632;10.016;2023-01-20T16:05:46;40.33;;;18.23;;
29712;SDS011;16623;53.632;10.016;2023-01-20T16:08:13;38.80;;;17.77;;
29712;SDS011;16623;53.632;10.016;2023-01-20T16:10:40;34.60;;;18.15;;
29712;SDS011;16623;53.632;10.016;2023-01-20T16:13:06;39.22;;;19.38;;
29712;SDS011;16623;53.632;10.016;2023-01-20T16:15:34;36.67;;;18.85;;
29712;SDS011;16623;53.632;10.016;2023-01-20T16:18:00;38.30;;;19.50;;
29712;SDS011;16623;53.632;10.016;2023-01-20T16:20:26;44.05;;;19.33;;
29712;SDS011;16623;53.632;10.016;2023-01-20T16:22:52;34.53;;;19.02;;
29712;SDS011;16623;53.632;10.016;2023-01-20T16:25:20;52.35;;;21.55;;
29712;SDS011;16623;53.632;10.016;2023-01-20T16:27:47;42.15;;;20.70;;